PAH371 TJSJ-KJFK
Flight info
| Callsign | PAH371 |
|---|---|
| Flight time | 3h 34m |
| Altitude | 38000 |
| Route | ACONY3 PALDE DCT DONQU/N0462F390 DCT LUCTI/M080F380 L454 RABAL/M080F400 L454 OKONU/N0457F390 DCT YAALE DCT KN54C/N0456F400 DCT OWENZ DCT CAMRN DCT NRTON |
| Aircraft | B736/M-SDE2E3FGHIRWXY/LB1 |
Departure
| Time | 2026-05-05 01:13 |
|---|---|
| Airport | Luis Munoz Marin International Airport (TJSJ) |
Arrival
| Time | 2026-05-05 04:47 |
|---|---|
| Airport | John F. Kennedy International Airport (KJFK) |
| Time | Latitude | Longitude | Altitude | Speed | Heading |
|---|---|---|---|---|---|
| 2026-05-05 00:38 | 18.43986 | -66.00626 | 16 ft | 0 kts | 139° |
| 2026-05-05 00:58 | 18.43994 | -66.00633 | 17 ft | 2 kts | 139° |
| 2026-05-05 00:58 | 18.44006 | -66.00644 | 17 ft | 2 kts | 141° |
| 2026-05-05 00:59 | 18.44019 | -66.00655 | 17 ft | 2 kts | 143° |
| 2026-05-05 00:59 | 18.44033 | -66.00665 | 17 ft | 2 kts | 149° |
| 2026-05-05 00:59 | 18.44048 | -66.00672 | 18 ft | 2 kts | 190° |
| 2026-05-05 00:59 | 18.44056 | -66.00666 | 18 ft | 0 kts | 243° |
| 2026-05-05 01:05 | 18.44055 | -66.00668 | 16 ft | 1 kts | 244° |
| 2026-05-05 01:05 | 18.44052 | -66.00676 | 16 ft | 4 kts | 244° |
| 2026-05-05 01:05 | 18.44035 | -66.00716 | 18 ft | 8 kts | 247° |
| 2026-05-05 01:06 | 18.44010 | -66.00781 | 16 ft | 11 kts | 248° |
| 2026-05-05 01:06 | 18.43991 | -66.00830 | 18 ft | 7 kts | 248° |
| 2026-05-05 01:06 | 18.43973 | -66.00875 | 17 ft | 7 kts | 247° |
| 2026-05-05 01:06 | 18.43955 | -66.00919 | 16 ft | 7 kts | 247° |
| 2026-05-05 01:07 | 18.43937 | -66.00963 | 16 ft | 6 kts | 247° |
| 2026-05-05 01:07 | 18.43920 | -66.01005 | 18 ft | 6 kts | 247° |
| 2026-05-05 01:07 | 18.43903 | -66.01047 | 16 ft | 6 kts | 247° |
| 2026-05-05 01:07 | 18.43886 | -66.01088 | 16 ft | 6 kts | 246° |
| 2026-05-05 01:08 | 18.43869 | -66.01134 | 15 ft | 7 kts | 249° |
| 2026-05-05 01:08 | 18.43852 | -66.01181 | 15 ft | 7 kts | 250° |
| 2026-05-05 01:08 | 18.43836 | -66.01229 | 15 ft | 7 kts | 250° |
| 2026-05-05 01:08 | 18.43818 | -66.01276 | 16 ft | 7 kts | 248° |
| 2026-05-05 01:09 | 18.43806 | -66.01325 | 17 ft | 7 kts | 266° |
| 2026-05-05 01:09 | 18.43799 | -66.01375 | 15 ft | 7 kts | 257° |
| 2026-05-05 01:09 | 18.43798 | -66.01423 | 15 ft | 0 kts | 290° |
| 2026-05-05 01:10 | 18.43802 | -66.01430 | 15 ft | 3 kts | 303° |
| 2026-05-05 01:10 | 18.43808 | -66.01436 | 16 ft | 1 kts | 315° |
| 2026-05-05 01:11 | 18.43824 | -66.01447 | 14 ft | 6 kts | 332° |
| 2026-05-05 01:11 | 18.43869 | -66.01448 | 14 ft | 7 kts | 23° |
| 2026-05-05 01:12 | 18.43906 | -66.01407 | 14 ft | 11 kts | 61° |
| 2026-05-05 01:12 | 18.43994 | -66.01190 | 17 ft | 68 kts | 67° |
| 2026-05-05 01:12 | 18.44282 | -66.00482 | 20 ft | 139 kts | 68° |
| 2026-05-05 01:12 | 18.44694 | -65.99424 | 390 ft | 167 kts | 69° |
| 2026-05-05 01:13 | 18.45202 | -65.98278 | 1129 ft | 179 kts | 65° |
| 2026-05-05 01:13 | 18.45810 | -65.97099 | 1909 ft | 188 kts | 58° |
| 2026-05-05 01:13 | 18.46930 | -65.96258 | 2371 ft | 222 kts | 18° |
| 2026-05-05 01:13 | 18.48588 | -65.96356 | 2467 ft | 260 kts | 342° |
| 2026-05-05 01:14 | 18.50339 | -65.97137 | 2715 ft | 282 kts | 333° |
| 2026-05-05 01:14 | 18.51819 | -65.98402 | 2953 ft | 264 kts | 312° |
| 2026-05-05 01:14 | 18.52984 | -65.99782 | 3076 ft | 237 kts | 310° |
| 2026-05-05 01:14 | 18.53993 | -66.01016 | 3292 ft | 211 kts | 310° |
| 2026-05-05 01:15 | 18.54926 | -66.02158 | 3393 ft | 204 kts | 310° |
| 2026-05-05 01:15 | 18.55882 | -66.03326 | 3527 ft | 224 kts | 310° |
| 2026-05-05 01:15 | 18.56967 | -66.04647 | 3850 ft | 251 kts | 310° |
| 2026-05-05 01:15 | 18.58153 | -66.06087 | 4284 ft | 270 kts | 310° |
| 2026-05-05 01:16 | 18.59416 | -66.07614 | 4767 ft | 287 kts | 311° |
| 2026-05-05 01:16 | 18.60724 | -66.09192 | 5253 ft | 283 kts | 311° |
| 2026-05-05 01:16 | 18.62023 | -66.10755 | 5695 ft | 283 kts | 311° |
| 2026-05-05 01:16 | 18.63323 | -66.12320 | 6131 ft | 285 kts | 311° |
| 2026-05-05 01:17 | 18.64631 | -66.13893 | 6568 ft | 285 kts | 311° |
| 2026-05-05 01:17 | 18.65946 | -66.15475 | 6994 ft | 286 kts | 311° |
| 2026-05-05 01:17 | 18.67259 | -66.17052 | 7434 ft | 286 kts | 311° |
| 2026-05-05 01:17 | 18.68567 | -66.18623 | 7863 ft | 285 kts | 311° |
| 2026-05-05 01:18 | 18.69873 | -66.20193 | 8294 ft | 284 kts | 310° |
| 2026-05-05 01:18 | 18.71168 | -66.21749 | 8713 ft | 281 kts | 310° |
| 2026-05-05 01:18 | 18.72458 | -66.23301 | 9136 ft | 283 kts | 310° |
| 2026-05-05 01:18 | 18.73762 | -66.24870 | 9581 ft | 285 kts | 310° |
| 2026-05-05 01:19 | 18.75071 | -66.26446 | 10027 ft | 286 kts | 310° |
| 2026-05-05 01:19 | 18.76437 | -66.28091 | 10246 ft | 312 kts | 310° |
| 2026-05-05 01:19 | 18.77931 | -66.29891 | 10450 ft | 340 kts | 310° |
| 2026-05-05 01:19 | 18.79545 | -66.31836 | 10650 ft | 364 kts | 310° |
| 2026-05-05 01:20 | 18.81247 | -66.33885 | 11143 ft | 375 kts | 310° |
| 2026-05-05 01:20 | 18.82956 | -66.35943 | 11853 ft | 379 kts | 310° |
| 2026-05-05 01:20 | 18.84704 | -66.38050 | 12614 ft | 381 kts | 310° |
| 2026-05-05 01:20 | 18.86458 | -66.40165 | 13329 ft | 385 kts | 310° |
| 2026-05-05 01:21 | 18.88235 | -66.42309 | 13994 ft | 389 kts | 310° |
| 2026-05-05 01:21 | 18.90016 | -66.44458 | 14767 ft | 386 kts | 310° |
| 2026-05-05 01:21 | 18.91770 | -66.46574 | 15634 ft | 382 kts | 310° |
| 2026-05-05 01:21 | 18.93578 | -66.48654 | 16246 ft | 386 kts | 314° |
| 2026-05-05 01:22 | 18.95516 | -66.50644 | 16755 ft | 392 kts | 315° |
| 2026-05-05 01:22 | 18.97499 | -66.52622 | 17402 ft | 392 kts | 315° |
| 2026-05-05 01:22 | 18.99496 | -66.54610 | 18033 ft | 394 kts | 315° |
| 2026-05-05 01:22 | 19.01489 | -66.56607 | 18585 ft | 397 kts | 315° |
| 2026-05-05 01:23 | 19.03495 | -66.58632 | 18982 ft | 402 kts | 314° |
| 2026-05-05 01:23 | 19.05534 | -66.60699 | 19382 ft | 407 kts | 314° |
| 2026-05-05 01:23 | 19.07564 | -66.62756 | 19800 ft | 411 kts | 314° |
| 2026-05-05 01:23 | 19.09686 | -66.64802 | 20190 ft | 416 kts | 316° |
| 2026-05-05 01:24 | 19.11893 | -66.66816 | 20569 ft | 421 kts | 317° |
| 2026-05-05 01:24 | 19.14141 | -66.68824 | 20965 ft | 424 kts | 317° |
| 2026-05-05 01:24 | 19.16417 | -66.70848 | 21273 ft | 431 kts | 317° |
| 2026-05-05 01:24 | 19.18715 | -66.72899 | 21629 ft | 434 kts | 318° |
| 2026-05-05 01:25 | 19.21034 | -66.74977 | 21974 ft | 439 kts | 317° |
| 2026-05-05 01:25 | 19.23375 | -66.77082 | 22275 ft | 444 kts | 317° |
| 2026-05-05 01:25 | 19.25735 | -66.79210 | 22588 ft | 448 kts | 317° |
| 2026-05-05 01:25 | 19.28119 | -66.81367 | 22892 ft | 452 kts | 317° |
| 2026-05-05 01:26 | 19.30529 | -66.83550 | 23218 ft | 456 kts | 317° |
| 2026-05-05 01:26 | 19.32951 | -66.85746 | 23541 ft | 459 kts | 317° |
| 2026-05-05 01:26 | 19.35356 | -66.87929 | 23828 ft | 462 kts | 317° |
| 2026-05-05 01:26 | 19.37833 | -66.90176 | 24145 ft | 463 kts | 317° |
| 2026-05-05 01:27 | 19.40252 | -66.92371 | 24490 ft | 464 kts | 317° |
| 2026-05-05 01:27 | 19.42732 | -66.94622 | 24833 ft | 464 kts | 317° |
| 2026-05-05 01:27 | 19.45155 | -66.96823 | 25144 ft | 465 kts | 318° |
| 2026-05-05 01:27 | 19.47617 | -66.99060 | 25435 ft | 466 kts | 317° |
| 2026-05-05 01:28 | 19.50080 | -67.01300 | 25730 ft | 468 kts | 317° |
| 2026-05-05 01:28 | 19.52557 | -67.03552 | 26026 ft | 468 kts | 317° |
| 2026-05-05 01:28 | 19.55035 | -67.05806 | 26298 ft | 469 kts | 317° |
| 2026-05-05 01:28 | 19.57514 | -67.08062 | 26570 ft | 471 kts | 317° |
| 2026-05-05 01:29 | 19.60004 | -67.10330 | 26837 ft | 472 kts | 317° |
| 2026-05-05 01:29 | 19.62498 | -67.12602 | 27105 ft | 473 kts | 317° |
| 2026-05-05 01:29 | 19.64998 | -67.14880 | 27338 ft | 474 kts | 317° |
| 2026-05-05 01:29 | 19.67503 | -67.17164 | 27581 ft | 475 kts | 317° |
| 2026-05-05 01:30 | 19.70008 | -67.19448 | 27813 ft | 476 kts | 317° |
| 2026-05-05 01:30 | 19.71672 | -67.20967 | 27960 ft | 476 kts | 317° |
| 2026-05-05 01:30 | 19.74184 | -67.23260 | 28194 ft | 477 kts | 317° |
| 2026-05-05 01:30 | 19.76705 | -67.25562 | 28407 ft | 478 kts | 317° |
| 2026-05-05 01:31 | 19.79234 | -67.27872 | 28636 ft | 478 kts | 317° |
| 2026-05-05 01:31 | 19.82566 | -67.30917 | 29055 ft | 476 kts | 317° |
| 2026-05-05 01:31 | 19.84262 | -67.32467 | 29307 ft | 475 kts | 317° |
| 2026-05-05 01:31 | 19.86760 | -67.34752 | 29691 ft | 472 kts | 317° |
| 2026-05-05 01:32 | 19.89241 | -67.37022 | 30064 ft | 470 kts | 317° |
| 2026-05-05 01:32 | 19.91720 | -67.39291 | 30380 ft | 469 kts | 317° |
| 2026-05-05 01:32 | 19.94187 | -67.41552 | 30675 ft | 468 kts | 317° |
| 2026-05-05 01:32 | 19.96650 | -67.43808 | 30974 ft | 467 kts | 317° |
| 2026-05-05 01:33 | 19.99080 | -67.46036 | 31294 ft | 467 kts | 317° |
| 2026-05-05 01:33 | 20.01537 | -67.48290 | 31638 ft | 465 kts | 317° |
| 2026-05-05 01:33 | 20.03981 | -67.50532 | 32001 ft | 464 kts | 317° |
| 2026-05-05 01:33 | 20.06423 | -67.52773 | 32375 ft | 462 kts | 317° |
| 2026-05-05 01:34 | 20.08851 | -67.55003 | 32747 ft | 461 kts | 316° |
| 2026-05-05 01:34 | 20.11273 | -67.57228 | 33119 ft | 460 kts | 316° |
| 2026-05-05 01:34 | 20.13695 | -67.59453 | 33507 ft | 459 kts | 316° |
| 2026-05-05 01:34 | 20.16108 | -67.61672 | 33928 ft | 457 kts | 316° |
| 2026-05-05 01:35 | 20.18510 | -67.63881 | 34309 ft | 455 kts | 316° |
| 2026-05-05 01:35 | 20.20902 | -67.66082 | 34706 ft | 453 kts | 316° |
| 2026-05-05 01:35 | 20.23283 | -67.68274 | 35106 ft | 451 kts | 316° |
| 2026-05-05 01:35 | 20.25650 | -67.70454 | 35494 ft | 448 kts | 316° |
| 2026-05-05 01:36 | 20.28000 | -67.72619 | 35855 ft | 446 kts | 316° |
| 2026-05-05 01:36 | 20.30350 | -67.74785 | 36084 ft | 447 kts | 316° |
| 2026-05-05 01:36 | 20.35064 | -67.79135 | 36073 ft | 447 kts | 316° |
| 2026-05-05 01:37 | 20.39745 | -67.83456 | 36079 ft | 443 kts | 316° |
| 2026-05-05 01:37 | 20.44405 | -67.87761 | 36078 ft | 441 kts | 316° |
| 2026-05-05 01:38 | 20.49085 | -67.92092 | 36235 ft | 449 kts | 315° |
| 2026-05-05 01:38 | 20.51443 | -67.94274 | 36493 ft | 449 kts | 315° |
| 2026-05-05 01:38 | 20.53797 | -67.96451 | 36852 ft | 446 kts | 315° |
| 2026-05-05 01:39 | 20.56130 | -67.98611 | 37237 ft | 442 kts | 315° |
| 2026-05-05 01:39 | 20.58447 | -68.00757 | 37557 ft | 441 kts | 315° |
| 2026-05-05 01:39 | 20.60756 | -68.02898 | 37813 ft | 440 kts | 315° |
| 2026-05-05 01:39 | 20.63069 | -68.05043 | 38063 ft | 438 kts | 315° |
| 2026-05-05 01:40 | 20.67673 | -68.09302 | 38069 ft | 437 kts | 317° |
| 2026-05-05 01:40 | 20.72945 | -68.12592 | 38081 ft | 444 kts | 333° |
| 2026-05-05 01:41 | 20.78906 | -68.14359 | 38090 ft | 451 kts | 343° |
| 2026-05-05 01:41 | 20.85080 | -68.15654 | 38079 ft | 451 kts | 344° |
| 2026-05-05 01:42 | 20.91242 | -68.16942 | 38075 ft | 451 kts | 343° |
| 2026-05-05 01:42 | 20.97400 | -68.18269 | 38075 ft | 451 kts | 343° |
| 2026-05-05 01:43 | 21.03555 | -68.19619 | 38073 ft | 452 kts | 343° |
| 2026-05-05 01:43 | 21.09712 | -68.20975 | 38069 ft | 452 kts | 343° |
| 2026-05-05 01:44 | 21.15870 | -68.22332 | 38073 ft | 452 kts | 343° |
| 2026-05-05 01:44 | 21.22026 | -68.23690 | 38082 ft | 452 kts | 343° |
| 2026-05-05 01:45 | 21.28184 | -68.25048 | 38076 ft | 452 kts | 343° |
| 2026-05-05 01:45 | 21.34339 | -68.26407 | 38080 ft | 451 kts | 342° |
| 2026-05-05 01:46 | 21.40499 | -68.27768 | 38081 ft | 451 kts | 342° |
| 2026-05-05 01:46 | 21.46652 | -68.29129 | 38077 ft | 451 kts | 342° |
| 2026-05-05 01:47 | 21.52798 | -68.30489 | 38080 ft | 451 kts | 342° |
| 2026-05-05 01:47 | 21.58943 | -68.31850 | 38079 ft | 450 kts | 342° |
| 2026-05-05 01:48 | 21.65087 | -68.33212 | 38077 ft | 450 kts | 342° |
| 2026-05-05 01:48 | 21.71179 | -68.34564 | 38078 ft | 450 kts | 342° |
| 2026-05-05 01:49 | 21.77317 | -68.35927 | 38079 ft | 450 kts | 342° |
| 2026-05-05 01:49 | 21.83445 | -68.37290 | 38077 ft | 450 kts | 342° |
| 2026-05-05 01:50 | 21.89571 | -68.38653 | 38079 ft | 449 kts | 342° |
| 2026-05-05 01:50 | 21.95702 | -68.40018 | 38078 ft | 449 kts | 342° |
| 2026-05-05 01:51 | 22.01825 | -68.41383 | 38079 ft | 449 kts | 342° |
| 2026-05-05 01:51 | 22.07947 | -68.42749 | 38075 ft | 449 kts | 342° |
| 2026-05-05 01:52 | 22.14071 | -68.44116 | 38080 ft | 449 kts | 342° |
| 2026-05-05 01:52 | 22.20162 | -68.45478 | 38079 ft | 449 kts | 342° |
| 2026-05-05 01:53 | 22.26294 | -68.46849 | 38072 ft | 449 kts | 342° |
| 2026-05-05 01:53 | 22.32416 | -68.48220 | 38078 ft | 449 kts | 341° |
| 2026-05-05 01:54 | 22.38538 | -68.49592 | 38076 ft | 449 kts | 341° |
| 2026-05-05 01:54 | 22.44661 | -68.50965 | 38078 ft | 449 kts | 341° |
| 2026-05-05 01:55 | 22.50452 | -68.52265 | 38079 ft | 449 kts | 341° |
| 2026-05-05 01:55 | 22.56560 | -68.53637 | 38076 ft | 449 kts | 341° |
| 2026-05-05 01:56 | 22.62639 | -68.55004 | 38075 ft | 449 kts | 341° |
| 2026-05-05 01:56 | 22.68750 | -68.56380 | 38081 ft | 448 kts | 341° |
| 2026-05-05 01:57 | 22.74855 | -68.57755 | 38077 ft | 448 kts | 341° |
| 2026-05-05 01:57 | 22.80967 | -68.59133 | 38077 ft | 448 kts | 341° |
| 2026-05-05 01:58 | 22.87067 | -68.60510 | 38078 ft | 448 kts | 341° |
| 2026-05-05 01:58 | 22.93175 | -68.61890 | 38076 ft | 448 kts | 341° |
| 2026-05-05 01:59 | 22.99273 | -68.63269 | 38075 ft | 448 kts | 341° |
| 2026-05-05 01:59 | 23.05374 | -68.64650 | 38080 ft | 447 kts | 341° |
| 2026-05-05 02:00 | 23.11473 | -68.66031 | 38073 ft | 447 kts | 341° |
| 2026-05-05 02:00 | 23.17565 | -68.67413 | 38082 ft | 447 kts | 341° |
| 2026-05-05 02:01 | 23.23661 | -68.68796 | 38079 ft | 447 kts | 341° |
| 2026-05-05 02:01 | 23.29758 | -68.70181 | 38078 ft | 447 kts | 341° |
| 2026-05-05 02:02 | 23.35858 | -68.71568 | 38080 ft | 447 kts | 341° |
| 2026-05-05 02:02 | 23.41951 | -68.72955 | 38077 ft | 448 kts | 340° |
| 2026-05-05 02:03 | 23.48046 | -68.74344 | 38078 ft | 448 kts | 340° |
| 2026-05-05 02:03 | 23.54147 | -68.75735 | 38080 ft | 448 kts | 340° |
| 2026-05-05 02:04 | 23.60208 | -68.77119 | 38079 ft | 448 kts | 340° |
| 2026-05-05 02:04 | 23.66330 | -68.78517 | 38081 ft | 448 kts | 340° |
| 2026-05-05 02:05 | 23.72434 | -68.79913 | 38083 ft | 448 kts | 340° |
| 2026-05-05 02:05 | 23.78540 | -68.81311 | 38077 ft | 448 kts | 340° |
| 2026-05-05 02:06 | 23.84653 | -68.82711 | 38082 ft | 448 kts | 340° |
| 2026-05-05 02:06 | 23.90725 | -68.84103 | 38084 ft | 448 kts | 340° |
| 2026-05-05 02:07 | 23.96826 | -68.85504 | 38080 ft | 448 kts | 340° |
| 2026-05-05 02:07 | 24.02932 | -68.86907 | 38071 ft | 448 kts | 340° |
| 2026-05-05 02:08 | 24.09032 | -68.88310 | 38072 ft | 448 kts | 340° |
| 2026-05-05 02:08 | 24.15128 | -68.89713 | 38075 ft | 447 kts | 339° |
| 2026-05-05 02:09 | 24.21228 | -68.91119 | 38074 ft | 447 kts | 339° |
| 2026-05-05 02:09 | 24.27321 | -68.92525 | 38075 ft | 447 kts | 339° |
| 2026-05-05 02:10 | 24.33377 | -68.93923 | 38074 ft | 447 kts | 339° |
| 2026-05-05 02:10 | 24.39468 | -68.95331 | 38075 ft | 447 kts | 339° |
| 2026-05-05 02:11 | 24.45555 | -68.96739 | 38074 ft | 447 kts | 339° |
| 2026-05-05 02:11 | 24.51641 | -68.98149 | 38079 ft | 447 kts | 339° |
| 2026-05-05 02:12 | 24.60767 | -69.00265 | 38073 ft | 447 kts | 339° |
| 2026-05-05 02:13 | 24.66846 | -69.01677 | 38080 ft | 447 kts | 339° |
| 2026-05-05 02:13 | 24.71916 | -69.02855 | 38080 ft | 447 kts | 339° |
| 2026-05-05 02:14 | 24.79000 | -69.04503 | 38073 ft | 448 kts | 339° |
| 2026-05-05 02:14 | 24.84100 | -69.05690 | 38080 ft | 448 kts | 339° |
| 2026-05-05 02:15 | 24.90214 | -69.07116 | 38071 ft | 448 kts | 339° |
| 2026-05-05 02:15 | 24.96318 | -69.08540 | 38072 ft | 448 kts | 339° |
| 2026-05-05 02:16 | 25.02399 | -69.09936 | 38076 ft | 450 kts | 339° |
| 2026-05-05 02:16 | 25.08567 | -69.11208 | 38074 ft | 451 kts | 340° |
| 2026-05-05 02:17 | 25.14756 | -69.12454 | 38074 ft | 452 kts | 340° |
| 2026-05-05 02:17 | 25.20947 | -69.13716 | 38080 ft | 452 kts | 340° |
| 2026-05-05 02:18 | 25.27136 | -69.14991 | 38070 ft | 452 kts | 340° |
| 2026-05-05 02:18 | 25.33294 | -69.16264 | 38072 ft | 453 kts | 340° |
| 2026-05-05 02:19 | 25.39488 | -69.17546 | 38068 ft | 453 kts | 340° |
| 2026-05-05 02:19 | 25.45684 | -69.18829 | 38071 ft | 453 kts | 340° |
| 2026-05-05 02:20 | 25.51882 | -69.20115 | 38068 ft | 453 kts | 340° |
| 2026-05-05 02:20 | 25.58081 | -69.21401 | 38069 ft | 453 kts | 339° |
| 2026-05-05 02:21 | 25.64293 | -69.22692 | 38071 ft | 453 kts | 339° |
| 2026-05-05 02:21 | 25.70496 | -69.23982 | 38070 ft | 453 kts | 339° |
| 2026-05-05 02:22 | 25.76701 | -69.25274 | 38066 ft | 454 kts | 339° |
| 2026-05-05 02:22 | 25.82904 | -69.26567 | 38067 ft | 454 kts | 339° |
| 2026-05-05 02:23 | 25.89079 | -69.27856 | 38067 ft | 454 kts | 339° |
| 2026-05-05 02:23 | 25.95292 | -69.29153 | 38074 ft | 454 kts | 339° |
| 2026-05-05 02:24 | 26.01513 | -69.30455 | 38069 ft | 455 kts | 339° |
| 2026-05-05 02:24 | 26.07732 | -69.31756 | 38072 ft | 455 kts | 340° |
| 2026-05-05 02:25 | 26.13952 | -69.33059 | 38070 ft | 455 kts | 340° |
| 2026-05-05 02:25 | 26.20178 | -69.34365 | 38073 ft | 455 kts | 340° |
| 2026-05-05 02:26 | 26.26404 | -69.35673 | 38069 ft | 455 kts | 340° |
| 2026-05-05 02:26 | 26.32629 | -69.36982 | 38070 ft | 455 kts | 340° |
| 2026-05-05 02:27 | 26.38862 | -69.38294 | 38069 ft | 455 kts | 340° |
| 2026-05-05 02:27 | 26.45090 | -69.39607 | 38072 ft | 456 kts | 340° |
| 2026-05-05 02:28 | 26.51322 | -69.40921 | 38068 ft | 456 kts | 340° |
| 2026-05-05 02:28 | 26.57557 | -69.42238 | 38061 ft | 456 kts | 340° |
| 2026-05-05 02:29 | 26.63798 | -69.43558 | 38074 ft | 457 kts | 340° |
| 2026-05-05 02:29 | 26.70052 | -69.44882 | 38061 ft | 458 kts | 340° |
| 2026-05-05 02:30 | 26.76316 | -69.46209 | 38065 ft | 458 kts | 340° |
| 2026-05-05 02:30 | 26.82553 | -69.47533 | 38065 ft | 460 kts | 340° |
| 2026-05-05 02:31 | 26.88849 | -69.48871 | 38067 ft | 461 kts | 340° |
| 2026-05-05 02:31 | 26.95152 | -69.50212 | 38070 ft | 462 kts | 340° |
| 2026-05-05 02:32 | 27.01496 | -69.51562 | 38067 ft | 464 kts | 340° |
| 2026-05-05 02:32 | 27.07846 | -69.52916 | 38067 ft | 465 kts | 341° |
| 2026-05-05 02:33 | 27.14225 | -69.54277 | 38066 ft | 467 kts | 341° |
| 2026-05-05 02:33 | 27.20616 | -69.55642 | 38066 ft | 468 kts | 341° |
| 2026-05-05 02:34 | 27.27030 | -69.57014 | 38065 ft | 470 kts | 341° |
| 2026-05-05 02:34 | 27.33460 | -69.58391 | 38069 ft | 471 kts | 341° |
| 2026-05-05 02:35 | 27.39869 | -69.59765 | 38067 ft | 472 kts | 341° |
| 2026-05-05 02:35 | 27.46338 | -69.61153 | 38066 ft | 473 kts | 341° |
| 2026-05-05 02:36 | 27.52824 | -69.62547 | 38067 ft | 474 kts | 340° |
| 2026-05-05 02:36 | 27.59302 | -69.63941 | 38077 ft | 474 kts | 340° |
| 2026-05-05 02:37 | 27.65778 | -69.65336 | 38065 ft | 474 kts | 340° |
| 2026-05-05 02:37 | 27.72263 | -69.66735 | 38078 ft | 473 kts | 340° |
| 2026-05-05 02:38 | 27.78737 | -69.68133 | 38083 ft | 473 kts | 339° |
| 2026-05-05 02:38 | 27.85194 | -69.69530 | 38084 ft | 472 kts | 339° |
| 2026-05-05 02:39 | 27.91601 | -69.70917 | 38091 ft | 471 kts | 339° |
| 2026-05-05 02:39 | 27.98047 | -69.72316 | 38091 ft | 470 kts | 339° |
| 2026-05-05 02:40 | 28.04463 | -69.73710 | 38095 ft | 469 kts | 339° |
| 2026-05-05 02:40 | 28.10873 | -69.75103 | 38093 ft | 468 kts | 338° |
| 2026-05-05 02:41 | 28.17261 | -69.76494 | 38092 ft | 467 kts | 338° |
| 2026-05-05 02:41 | 28.23650 | -69.77888 | 38093 ft | 466 kts | 338° |
| 2026-05-05 02:42 | 28.29971 | -69.79267 | 38093 ft | 465 kts | 338° |
| 2026-05-05 02:42 | 28.36333 | -69.80658 | 38094 ft | 465 kts | 338° |
| 2026-05-05 02:43 | 28.42679 | -69.82047 | 38101 ft | 464 kts | 338° |
| 2026-05-05 02:43 | 28.49034 | -69.83440 | 38103 ft | 464 kts | 338° |
| 2026-05-05 02:44 | 28.55372 | -69.84830 | 38104 ft | 464 kts | 338° |
| 2026-05-05 02:44 | 28.61727 | -69.86226 | 38107 ft | 464 kts | 338° |
| 2026-05-05 02:45 | 28.68074 | -69.87622 | 38107 ft | 465 kts | 338° |
| 2026-05-05 02:45 | 28.74422 | -69.89019 | 38104 ft | 465 kts | 338° |
| 2026-05-05 02:46 | 28.80771 | -69.90419 | 38100 ft | 465 kts | 338° |
| 2026-05-05 02:46 | 28.87113 | -69.91818 | 38105 ft | 464 kts | 338° |
| 2026-05-05 02:47 | 28.93422 | -69.93212 | 38106 ft | 464 kts | 338° |
| 2026-05-05 02:47 | 28.99767 | -69.94616 | 38105 ft | 464 kts | 338° |
| 2026-05-05 02:48 | 29.06116 | -69.96023 | 38110 ft | 464 kts | 338° |
| 2026-05-05 02:48 | 29.12453 | -69.97428 | 38111 ft | 464 kts | 338° |
| 2026-05-05 02:49 | 29.18800 | -69.98838 | 38112 ft | 464 kts | 338° |
| 2026-05-05 02:49 | 29.25141 | -70.00248 | 38112 ft | 464 kts | 338° |
| 2026-05-05 02:50 | 29.31483 | -70.01660 | 38109 ft | 464 kts | 338° |
| 2026-05-05 02:50 | 29.37833 | -70.03075 | 38112 ft | 464 kts | 338° |
| 2026-05-05 02:51 | 29.44132 | -70.04481 | 38116 ft | 464 kts | 338° |
| 2026-05-05 02:51 | 29.50475 | -70.05899 | 38121 ft | 464 kts | 338° |
| 2026-05-05 02:52 | 29.56819 | -70.07319 | 38122 ft | 464 kts | 338° |
| 2026-05-05 02:52 | 29.63164 | -70.08741 | 38126 ft | 464 kts | 338° |
| 2026-05-05 02:53 | 29.69508 | -70.10164 | 38120 ft | 464 kts | 338° |
| 2026-05-05 02:53 | 29.75848 | -70.11588 | 38129 ft | 464 kts | 338° |
| 2026-05-05 02:54 | 29.82193 | -70.13015 | 38125 ft | 464 kts | 338° |
| 2026-05-05 02:54 | 29.88527 | -70.14442 | 38133 ft | 464 kts | 338° |
| 2026-05-05 02:55 | 29.94863 | -70.15871 | 38130 ft | 463 kts | 338° |
| 2026-05-05 02:55 | 30.01190 | -70.17299 | 38136 ft | 463 kts | 338° |
| 2026-05-05 02:56 | 30.07472 | -70.18720 | 38135 ft | 463 kts | 338° |
| 2026-05-05 02:56 | 30.13797 | -70.20152 | 38137 ft | 463 kts | 338° |
| 2026-05-05 02:57 | 30.20111 | -70.21583 | 38138 ft | 463 kts | 338° |
| 2026-05-05 02:57 | 30.26434 | -70.23019 | 38141 ft | 462 kts | 338° |
| 2026-05-05 02:58 | 30.31687 | -70.24213 | 38143 ft | 462 kts | 338° |
| 2026-05-05 02:58 | 30.38000 | -70.25649 | 38141 ft | 462 kts | 338° |
| 2026-05-05 02:59 | 30.44320 | -70.27086 | 38148 ft | 462 kts | 338° |
| 2026-05-05 02:59 | 30.50632 | -70.28522 | 38147 ft | 462 kts | 338° |
| 2026-05-05 03:00 | 30.56953 | -70.29963 | 38153 ft | 462 kts | 338° |
| 2026-05-05 03:00 | 30.63267 | -70.31404 | 38160 ft | 462 kts | 338° |
| 2026-05-05 03:01 | 30.69584 | -70.32849 | 38151 ft | 463 kts | 338° |
| 2026-05-05 03:01 | 30.75908 | -70.34296 | 38156 ft | 463 kts | 338° |
| 2026-05-05 03:02 | 30.82225 | -70.35743 | 38161 ft | 463 kts | 338° |
| 2026-05-05 03:02 | 30.88509 | -70.37186 | 38158 ft | 463 kts | 338° |
| 2026-05-05 03:03 | 30.94834 | -70.38639 | 38159 ft | 463 kts | 338° |
| 2026-05-05 03:03 | 31.01152 | -70.40093 | 38162 ft | 463 kts | 338° |
| 2026-05-05 03:04 | 31.07480 | -70.41551 | 38167 ft | 463 kts | 338° |
| 2026-05-05 03:04 | 31.13809 | -70.43012 | 38162 ft | 463 kts | 338° |
| 2026-05-05 03:05 | 31.20133 | -70.44473 | 38170 ft | 463 kts | 338° |
| 2026-05-05 03:05 | 31.26460 | -70.45938 | 38179 ft | 464 kts | 338° |
| 2026-05-05 03:06 | 31.32802 | -70.47407 | 38176 ft | 464 kts | 338° |
| 2026-05-05 03:06 | 31.39102 | -70.48869 | 38173 ft | 465 kts | 338° |
| 2026-05-05 03:07 | 31.45454 | -70.50345 | 38170 ft | 465 kts | 338° |
| 2026-05-05 03:07 | 31.51792 | -70.51822 | 38171 ft | 465 kts | 338° |
| 2026-05-05 03:08 | 31.58142 | -70.53305 | 38175 ft | 465 kts | 338° |
| 2026-05-05 03:08 | 31.64493 | -70.54791 | 38176 ft | 466 kts | 338° |
| 2026-05-05 03:09 | 31.70859 | -70.56282 | 38178 ft | 466 kts | 338° |
| 2026-05-05 03:09 | 31.77226 | -70.57775 | 38178 ft | 466 kts | 338° |
| 2026-05-05 03:10 | 31.83602 | -70.59272 | 38178 ft | 467 kts | 338° |
| 2026-05-05 03:10 | 31.89975 | -70.60771 | 38180 ft | 467 kts | 338° |
| 2026-05-05 03:11 | 31.96359 | -70.62275 | 38186 ft | 468 kts | 338° |
| 2026-05-05 03:11 | 32.02743 | -70.63781 | 38185 ft | 468 kts | 338° |
| 2026-05-05 03:12 | 32.09132 | -70.65290 | 38184 ft | 468 kts | 338° |
| 2026-05-05 03:12 | 32.15535 | -70.66804 | 38187 ft | 469 kts | 338° |
| 2026-05-05 03:13 | 32.21894 | -70.68310 | 38190 ft | 469 kts | 338° |
| 2026-05-05 03:13 | 32.28310 | -70.69832 | 38188 ft | 470 kts | 338° |
| 2026-05-05 03:14 | 32.34729 | -70.71357 | 38188 ft | 470 kts | 338° |
| 2026-05-05 03:14 | 32.41152 | -70.72885 | 38193 ft | 470 kts | 338° |
| 2026-05-05 03:15 | 32.47527 | -70.74404 | 38197 ft | 471 kts | 338° |
| 2026-05-05 03:15 | 32.53949 | -70.75935 | 38199 ft | 471 kts | 338° |
| 2026-05-05 03:16 | 32.60377 | -70.77471 | 38198 ft | 471 kts | 338° |
| 2026-05-05 03:16 | 32.66803 | -70.79009 | 38192 ft | 471 kts | 338° |
| 2026-05-05 03:17 | 32.73229 | -70.80549 | 38195 ft | 471 kts | 338° |
| 2026-05-05 03:17 | 32.79655 | -70.82091 | 38195 ft | 471 kts | 338° |
| 2026-05-05 03:18 | 32.86088 | -70.83637 | 38199 ft | 471 kts | 337° |
| 2026-05-05 03:18 | 32.92510 | -70.85182 | 38203 ft | 471 kts | 337° |
| 2026-05-05 03:19 | 33.02104 | -70.87496 | 38204 ft | 470 kts | 337° |
| 2026-05-05 03:19 | 33.08524 | -70.89046 | 38204 ft | 470 kts | 337° |
| 2026-05-05 03:20 | 33.14923 | -70.90595 | 38210 ft | 469 kts | 337° |
| 2026-05-05 03:20 | 33.21318 | -70.92144 | 38213 ft | 469 kts | 337° |
| 2026-05-05 03:21 | 33.27719 | -70.93697 | 38198 ft | 468 kts | 336° |
| 2026-05-05 03:21 | 33.34087 | -70.95245 | 38207 ft | 467 kts | 336° |
| 2026-05-05 03:22 | 33.40452 | -70.96794 | 38213 ft | 466 kts | 336° |
| 2026-05-05 03:22 | 33.46818 | -70.98346 | 38213 ft | 466 kts | 336° |
| 2026-05-05 03:23 | 33.53164 | -70.99896 | 38217 ft | 465 kts | 336° |
| 2026-05-05 03:23 | 33.59493 | -71.01443 | 38209 ft | 464 kts | 336° |
| 2026-05-05 03:24 | 33.65798 | -71.02988 | 38210 ft | 464 kts | 336° |
| 2026-05-05 03:24 | 33.72116 | -71.04537 | 38208 ft | 463 kts | 336° |
| 2026-05-05 03:25 | 33.78425 | -71.06086 | 38210 ft | 462 kts | 336° |
| 2026-05-05 03:25 | 33.84730 | -71.07637 | 38210 ft | 462 kts | 336° |
| 2026-05-05 03:26 | 33.91027 | -71.09189 | 38212 ft | 461 kts | 336° |
| 2026-05-05 03:26 | 33.97321 | -71.10743 | 38214 ft | 461 kts | 336° |
| 2026-05-05 03:27 | 34.03621 | -71.12300 | 38217 ft | 461 kts | 336° |
| 2026-05-05 03:27 | 34.09907 | -71.13856 | 38216 ft | 461 kts | 337° |
| 2026-05-05 03:28 | 34.16193 | -71.15415 | 38215 ft | 461 kts | 337° |
| 2026-05-05 03:28 | 34.22474 | -71.16975 | 38206 ft | 461 kts | 337° |
| 2026-05-05 03:29 | 34.28761 | -71.18538 | 38208 ft | 461 kts | 337° |
| 2026-05-05 03:29 | 34.35037 | -71.20101 | 38209 ft | 460 kts | 337° |
| 2026-05-05 03:30 | 34.41303 | -71.21664 | 38211 ft | 460 kts | 337° |
| 2026-05-05 03:30 | 34.47529 | -71.23220 | 38221 ft | 460 kts | 338° |
| 2026-05-05 03:31 | 34.53806 | -71.24790 | 38212 ft | 460 kts | 338° |
| 2026-05-05 03:31 | 34.60073 | -71.26361 | 38214 ft | 459 kts | 338° |
| 2026-05-05 03:32 | 34.66336 | -71.27932 | 38213 ft | 459 kts | 338° |
| 2026-05-05 03:32 | 34.72592 | -71.29504 | 38215 ft | 459 kts | 338° |
| 2026-05-05 03:33 | 34.78849 | -71.31078 | 38213 ft | 459 kts | 338° |
| 2026-05-05 03:33 | 34.85065 | -71.32644 | 38215 ft | 458 kts | 338° |
| 2026-05-05 03:34 | 34.91311 | -71.34220 | 38209 ft | 458 kts | 339° |
| 2026-05-05 03:34 | 34.97551 | -71.35798 | 38207 ft | 458 kts | 339° |
| 2026-05-05 03:35 | 35.03794 | -71.37379 | 38218 ft | 457 kts | 339° |
| 2026-05-05 03:35 | 35.10033 | -71.38961 | 38212 ft | 457 kts | 339° |
| 2026-05-05 03:36 | 35.16262 | -71.40543 | 38208 ft | 457 kts | 339° |
| 2026-05-05 03:36 | 35.22474 | -71.42123 | 38209 ft | 457 kts | 339° |
| 2026-05-05 03:37 | 35.28707 | -71.43711 | 38204 ft | 457 kts | 339° |
| 2026-05-05 03:37 | 35.34899 | -71.45291 | 38211 ft | 456 kts | 339° |
| 2026-05-05 03:38 | 35.41120 | -71.46881 | 38202 ft | 456 kts | 340° |
| 2026-05-05 03:38 | 35.47334 | -71.48472 | 38201 ft | 456 kts | 340° |
| 2026-05-05 03:39 | 35.52502 | -71.49797 | 38203 ft | 456 kts | 340° |
| 2026-05-05 03:39 | 35.58708 | -71.51390 | 38202 ft | 456 kts | 340° |
| 2026-05-05 03:40 | 35.64919 | -71.52987 | 38200 ft | 456 kts | 340° |
| 2026-05-05 03:40 | 35.71125 | -71.54583 | 38205 ft | 455 kts | 340° |
| 2026-05-05 03:41 | 35.77330 | -71.56180 | 38196 ft | 455 kts | 340° |
| 2026-05-05 03:41 | 35.83539 | -71.57782 | 38199 ft | 455 kts | 340° |
| 2026-05-05 03:42 | 35.89732 | -71.59382 | 38194 ft | 455 kts | 340° |
| 2026-05-05 03:42 | 35.95945 | -71.60990 | 38194 ft | 455 kts | 340° |
| 2026-05-05 03:43 | 36.02142 | -71.62597 | 38196 ft | 455 kts | 340° |
| 2026-05-05 03:43 | 36.08336 | -71.64205 | 38196 ft | 455 kts | 340° |
| 2026-05-05 03:44 | 36.14527 | -71.65815 | 38180 ft | 454 kts | 340° |
| 2026-05-05 03:44 | 36.20712 | -71.67426 | 38184 ft | 454 kts | 340° |
| 2026-05-05 03:45 | 36.26858 | -71.69030 | 38183 ft | 454 kts | 340° |
| 2026-05-05 03:45 | 36.33033 | -71.70644 | 38183 ft | 453 kts | 340° |
| 2026-05-05 03:46 | 36.39212 | -71.72262 | 38179 ft | 453 kts | 341° |
| 2026-05-05 03:46 | 36.45380 | -71.73879 | 38184 ft | 453 kts | 341° |
| 2026-05-05 03:47 | 36.51555 | -71.75500 | 38178 ft | 452 kts | 341° |
| 2026-05-05 03:47 | 36.57721 | -71.77122 | 38171 ft | 452 kts | 341° |
| 2026-05-05 03:48 | 36.63883 | -71.78746 | 38173 ft | 452 kts | 341° |
| 2026-05-05 03:48 | 36.69998 | -71.80360 | 38171 ft | 451 kts | 341° |
| 2026-05-05 03:49 | 36.76143 | -71.81985 | 38169 ft | 451 kts | 341° |
| 2026-05-05 03:49 | 36.82284 | -71.83611 | 38156 ft | 451 kts | 341° |
| 2026-05-05 03:50 | 36.88420 | -71.85238 | 38157 ft | 451 kts | 341° |
| 2026-05-05 03:50 | 36.94561 | -71.86870 | 38157 ft | 450 kts | 341° |
| 2026-05-05 03:51 | 37.00694 | -71.88502 | 38153 ft | 450 kts | 341° |
| 2026-05-05 03:51 | 37.06829 | -71.90137 | 38155 ft | 450 kts | 341° |
| 2026-05-05 03:52 | 37.12967 | -71.91776 | 38153 ft | 450 kts | 341° |
| 2026-05-05 03:52 | 37.19102 | -71.93416 | 38141 ft | 450 kts | 341° |
| 2026-05-05 03:53 | 37.25231 | -71.95058 | 38144 ft | 449 kts | 341° |
| 2026-05-05 03:53 | 37.31349 | -71.96517 | 38131 ft | 454 kts | 349° |
| 2026-05-05 03:54 | 37.37722 | -71.96582 | 38139 ft | 459 kts | 355° |
| 2026-05-05 03:54 | 37.44096 | -71.96413 | 38132 ft | 458 kts | 355° |
| 2026-05-05 03:55 | 37.50476 | -71.96284 | 38131 ft | 457 kts | 354° |
| 2026-05-05 03:55 | 37.56825 | -71.96200 | 38128 ft | 456 kts | 354° |
| 2026-05-05 03:56 | 37.63158 | -71.96132 | 38125 ft | 454 kts | 355° |
| 2026-05-05 03:56 | 37.69117 | -71.96068 | 38120 ft | 454 kts | 355° |
| 2026-05-05 03:57 | 37.75426 | -71.95998 | 38119 ft | 453 kts | 355° |
| 2026-05-05 03:57 | 37.81715 | -71.95927 | 38119 ft | 452 kts | 355° |
| 2026-05-05 03:58 | 37.87995 | -71.95856 | 38120 ft | 451 kts | 355° |
| 2026-05-05 03:58 | 37.94229 | -71.95785 | 38115 ft | 450 kts | 355° |
| 2026-05-05 03:59 | 38.00493 | -71.95715 | 38115 ft | 450 kts | 355° |
| 2026-05-05 03:59 | 38.06752 | -71.95644 | 38111 ft | 450 kts | 355° |
| 2026-05-05 04:00 | 38.13020 | -71.95572 | 38111 ft | 450 kts | 355° |
| 2026-05-05 04:00 | 38.19288 | -71.95501 | 38107 ft | 450 kts | 355° |
| 2026-05-05 04:01 | 38.25553 | -71.95429 | 38111 ft | 451 kts | 356° |
| 2026-05-05 04:01 | 38.31814 | -71.95519 | 38104 ft | 449 kts | 353° |
| 2026-05-05 04:02 | 38.38054 | -71.95951 | 38103 ft | 449 kts | 352° |
| 2026-05-05 04:02 | 38.44287 | -71.96408 | 38104 ft | 449 kts | 352° |
| 2026-05-05 04:03 | 38.50530 | -71.96827 | 38100 ft | 449 kts | 352° |
| 2026-05-05 04:03 | 38.56745 | -71.97225 | 38099 ft | 449 kts | 353° |
| 2026-05-05 04:04 | 38.63005 | -71.97622 | 38099 ft | 449 kts | 353° |
| 2026-05-05 04:04 | 38.69244 | -71.98022 | 38092 ft | 448 kts | 353° |
| 2026-05-05 04:05 | 38.75463 | -71.98420 | 38094 ft | 446 kts | 353° |
| 2026-05-05 04:05 | 38.81620 | -71.98815 | 38085 ft | 445 kts | 352° |
| 2026-05-05 04:06 | 38.87802 | -71.99213 | 38087 ft | 444 kts | 352° |
| 2026-05-05 04:06 | 38.93976 | -71.99611 | 38088 ft | 444 kts | 352° |
| 2026-05-05 04:07 | 38.99956 | -72.01009 | 38095 ft | 432 kts | 334° |
| 2026-05-05 04:07 | 39.05078 | -72.04847 | 38093 ft | 424 kts | 319° |
| 2026-05-05 04:08 | 39.09717 | -72.09546 | 38081 ft | 425 kts | 318° |
| 2026-05-05 04:08 | 39.14366 | -72.14281 | 38079 ft | 426 kts | 318° |
| 2026-05-05 04:09 | 39.19056 | -72.19009 | 38073 ft | 428 kts | 318° |
| 2026-05-05 04:09 | 39.23750 | -72.23719 | 38070 ft | 428 kts | 318° |
| 2026-05-05 04:10 | 39.28461 | -72.28446 | 38072 ft | 429 kts | 318° |
| 2026-05-05 04:10 | 39.33150 | -72.33160 | 38061 ft | 429 kts | 318° |
| 2026-05-05 04:11 | 39.37856 | -72.37901 | 38063 ft | 429 kts | 318° |
| 2026-05-05 04:11 | 39.42550 | -72.42638 | 38056 ft | 428 kts | 318° |
| 2026-05-05 04:12 | 39.47243 | -72.47383 | 38056 ft | 427 kts | 318° |
| 2026-05-05 04:12 | 39.51928 | -72.52128 | 38048 ft | 427 kts | 318° |
| 2026-05-05 04:13 | 39.54267 | -72.54502 | 37803 ft | 429 kts | 318° |
| 2026-05-05 04:13 | 39.56622 | -72.56894 | 36978 ft | 433 kts | 318° |
| 2026-05-05 04:13 | 39.58992 | -72.59303 | 36208 ft | 432 kts | 318° |
| 2026-05-05 04:13 | 39.61371 | -72.61721 | 35430 ft | 432 kts | 318° |
| 2026-05-05 04:14 | 39.63734 | -72.64125 | 34678 ft | 431 kts | 319° |
| 2026-05-05 04:14 | 39.66092 | -72.66527 | 33943 ft | 431 kts | 319° |
| 2026-05-05 04:14 | 39.68410 | -72.68891 | 33112 ft | 430 kts | 319° |
| 2026-05-05 04:14 | 39.70794 | -72.71324 | 32283 ft | 428 kts | 319° |
| 2026-05-05 04:15 | 39.73110 | -72.73691 | 31503 ft | 433 kts | 319° |
| 2026-05-05 04:15 | 39.75538 | -72.76174 | 30732 ft | 440 kts | 319° |
| 2026-05-05 04:15 | 39.77923 | -72.78615 | 29971 ft | 445 kts | 319° |
| 2026-05-05 04:15 | 39.80182 | -72.81350 | 29076 ft | 443 kts | 308° |
| 2026-05-05 04:16 | 39.81965 | -72.84604 | 28237 ft | 440 kts | 299° |
| 2026-05-05 04:16 | 39.83306 | -72.88163 | 27417 ft | 438 kts | 290° |
| 2026-05-05 04:16 | 39.84143 | -72.91977 | 26625 ft | 439 kts | 283° |
| 2026-05-05 04:16 | 39.84863 | -72.95864 | 25846 ft | 445 kts | 283° |
| 2026-05-05 04:17 | 39.85575 | -72.99783 | 25075 ft | 443 kts | 283° |
| 2026-05-05 04:17 | 39.86283 | -73.03653 | 24369 ft | 436 kts | 283° |
| 2026-05-05 04:17 | 39.86991 | -73.07463 | 23691 ft | 430 kts | 283° |
| 2026-05-05 04:17 | 39.87698 | -73.11227 | 22914 ft | 425 kts | 283° |
| 2026-05-05 04:18 | 39.88403 | -73.14948 | 22126 ft | 421 kts | 283° |
| 2026-05-05 04:18 | 39.89103 | -73.18634 | 21380 ft | 418 kts | 283° |
| 2026-05-05 04:18 | 39.89800 | -73.22303 | 20635 ft | 415 kts | 283° |
| 2026-05-05 04:18 | 39.90490 | -73.25939 | 19911 ft | 412 kts | 283° |
| 2026-05-05 04:19 | 39.91171 | -73.29541 | 19199 ft | 408 kts | 283° |
| 2026-05-05 04:19 | 39.91846 | -73.33115 | 18565 ft | 404 kts | 283° |
| 2026-05-05 04:19 | 39.92506 | -73.36614 | 18160 ft | 399 kts | 283° |
| 2026-05-05 04:19 | 39.93164 | -73.40114 | 17676 ft | 396 kts | 283° |
| 2026-05-05 04:20 | 39.93816 | -73.43591 | 17197 ft | 394 kts | 283° |
| 2026-05-05 04:20 | 39.94466 | -73.47056 | 16717 ft | 391 kts | 283° |
| 2026-05-05 04:20 | 39.95107 | -73.50486 | 16256 ft | 389 kts | 283° |
| 2026-05-05 04:20 | 39.95746 | -73.53909 | 15808 ft | 387 kts | 283° |
| 2026-05-05 04:21 | 39.96380 | -73.57313 | 15357 ft | 385 kts | 283° |
| 2026-05-05 04:21 | 39.97011 | -73.60703 | 14918 ft | 384 kts | 283° |
| 2026-05-05 04:21 | 39.97638 | -73.64072 | 14483 ft | 382 kts | 283° |
| 2026-05-05 04:21 | 39.98252 | -73.67385 | 14060 ft | 380 kts | 283° |
| 2026-05-05 04:22 | 39.98916 | -73.70721 | 13652 ft | 378 kts | 288° |
| 2026-05-05 04:22 | 40.00186 | -73.73691 | 13270 ft | 373 kts | 307° |
| 2026-05-05 04:22 | 40.01405 | -73.75298 | 13015 ft | 364 kts | 318° |
| 2026-05-05 04:22 | 40.03517 | -73.76943 | 12677 ft | 345 kts | 335° |
| 2026-05-05 04:23 | 40.05777 | -73.77692 | 12439 ft | 327 kts | 350° |
| 2026-05-05 04:23 | 40.07970 | -73.77649 | 12209 ft | 314 kts | 3° |
| 2026-05-05 04:23 | 40.10061 | -73.77054 | 11979 ft | 302 kts | 14° |
| 2026-05-05 04:23 | 40.11918 | -73.75887 | 11746 ft | 295 kts | 30° |
| 2026-05-05 04:24 | 40.13580 | -73.74302 | 11541 ft | 290 kts | 33° |
| 2026-05-05 04:24 | 40.15143 | -73.72705 | 11331 ft | 288 kts | 34° |
| 2026-05-05 04:24 | 40.16726 | -73.71098 | 11132 ft | 286 kts | 33° |
| 2026-05-05 04:25 | 40.19902 | -73.67904 | 10855 ft | 291 kts | 33° |
| 2026-05-05 04:25 | 40.21517 | -73.66283 | 10715 ft | 291 kts | 33° |
| 2026-05-05 04:25 | 40.23116 | -73.64678 | 10579 ft | 289 kts | 33° |
| 2026-05-05 04:25 | 40.24708 | -73.63078 | 10443 ft | 287 kts | 33° |
| 2026-05-05 04:26 | 40.26293 | -73.61486 | 10314 ft | 286 kts | 33° |
| 2026-05-05 04:26 | 40.27872 | -73.59900 | 10185 ft | 286 kts | 33° |
| 2026-05-05 04:26 | 40.29457 | -73.58308 | 10101 ft | 287 kts | 33° |
| 2026-05-05 04:26 | 40.31035 | -73.56720 | 10067 ft | 285 kts | 33° |
| 2026-05-05 04:27 | 40.32649 | -73.55221 | 10052 ft | 282 kts | 22° |
| 2026-05-05 04:27 | 40.34501 | -73.54500 | 9976 ft | 277 kts | 6° |
| 2026-05-05 04:27 | 40.36357 | -73.54047 | 9795 ft | 277 kts | 6° |
| 2026-05-05 04:27 | 40.38247 | -73.53605 | 9587 ft | 274 kts | 5° |
| 2026-05-05 04:28 | 40.40121 | -73.53166 | 9382 ft | 272 kts | 5° |
| 2026-05-05 04:28 | 40.41978 | -73.52727 | 9189 ft | 271 kts | 6° |
| 2026-05-05 04:28 | 40.43827 | -73.52285 | 8991 ft | 270 kts | 6° |
| 2026-05-05 04:28 | 40.45645 | -73.51848 | 8793 ft | 269 kts | 6° |
| 2026-05-05 04:29 | 40.47481 | -73.51403 | 8596 ft | 268 kts | 6° |
| 2026-05-05 04:29 | 40.49316 | -73.50958 | 8406 ft | 267 kts | 6° |
| 2026-05-05 04:29 | 40.51147 | -73.50511 | 8221 ft | 267 kts | 6° |
| 2026-05-05 04:29 | 40.52971 | -73.50066 | 8027 ft | 267 kts | 6° |
| 2026-05-05 04:30 | 40.54803 | -73.49618 | 7843 ft | 267 kts | 5° |
| 2026-05-05 04:30 | 40.56629 | -73.49172 | 7653 ft | 267 kts | 6° |
| 2026-05-05 04:30 | 40.58460 | -73.48723 | 7469 ft | 267 kts | 6° |
| 2026-05-05 04:30 | 40.60287 | -73.48275 | 7290 ft | 267 kts | 6° |
| 2026-05-05 04:31 | 40.62122 | -73.47825 | 7124 ft | 267 kts | 6° |
| 2026-05-05 04:31 | 40.63947 | -73.47376 | 6970 ft | 267 kts | 6° |
| 2026-05-05 04:31 | 40.65773 | -73.46928 | 6810 ft | 266 kts | 5° |
| 2026-05-05 04:31 | 40.67580 | -73.46483 | 6655 ft | 265 kts | 5° |
| 2026-05-05 04:32 | 40.69361 | -73.45808 | 6486 ft | 270 kts | 18° |
| 2026-05-05 04:32 | 40.71058 | -73.44736 | 6336 ft | 270 kts | 22° |
| 2026-05-05 04:32 | 40.72735 | -73.43621 | 6166 ft | 270 kts | 21° |
| 2026-05-05 04:32 | 40.74398 | -73.42460 | 6041 ft | 270 kts | 25° |
| 2026-05-05 04:33 | 40.76008 | -73.41221 | 6058 ft | 269 kts | 26° |
| 2026-05-05 04:33 | 40.77630 | -73.39953 | 5959 ft | 274 kts | 26° |
| 2026-05-05 04:33 | 40.79272 | -73.38671 | 5680 ft | 278 kts | 26° |
| 2026-05-05 04:33 | 40.80942 | -73.37366 | 5411 ft | 273 kts | 26° |
| 2026-05-05 04:34 | 40.82544 | -73.36112 | 5156 ft | 270 kts | 26° |
| 2026-05-05 04:34 | 40.84140 | -73.34858 | 4911 ft | 262 kts | 26° |
| 2026-05-05 04:34 | 40.85686 | -73.33644 | 4655 ft | 255 kts | 26° |
| 2026-05-05 04:34 | 40.87193 | -73.32457 | 4386 ft | 250 kts | 26° |
| 2026-05-05 04:35 | 40.88672 | -73.31289 | 4123 ft | 245 kts | 26° |
| 2026-05-05 04:35 | 40.90170 | -73.30307 | 3856 ft | 236 kts | 6° |
| 2026-05-05 04:35 | 40.91686 | -73.30557 | 3565 ft | 212 kts | 323° |
| 2026-05-05 04:35 | 40.92597 | -73.31919 | 3346 ft | 194 kts | 293° |
| 2026-05-05 04:36 | 40.93114 | -73.33535 | 3134 ft | 187 kts | 281° |
| 2026-05-05 04:36 | 40.93237 | -73.35201 | 3073 ft | 183 kts | 266° |
| 2026-05-05 04:36 | 40.92978 | -73.36835 | 3060 ft | 183 kts | 247° |
| 2026-05-05 04:36 | 40.92321 | -73.38268 | 3053 ft | 182 kts | 239° |
| 2026-05-05 04:37 | 40.91620 | -73.39692 | 3049 ft | 186 kts | 239° |
| 2026-05-05 04:37 | 40.90906 | -73.41139 | 3057 ft | 189 kts | 239° |
| 2026-05-05 04:37 | 40.90184 | -73.42598 | 3042 ft | 189 kts | 239° |
| 2026-05-05 04:37 | 40.89467 | -73.44054 | 3041 ft | 188 kts | 239° |
| 2026-05-05 04:38 | 40.88757 | -73.45487 | 3042 ft | 187 kts | 239° |
| 2026-05-05 04:38 | 40.88046 | -73.46912 | 3052 ft | 188 kts | 239° |
| 2026-05-05 04:38 | 40.87328 | -73.48352 | 3049 ft | 189 kts | 239° |
| 2026-05-05 04:38 | 40.86596 | -73.49820 | 3060 ft | 187 kts | 239° |
| 2026-05-05 04:39 | 40.85901 | -73.51212 | 3028 ft | 178 kts | 239° |
| 2026-05-05 04:39 | 40.85240 | -73.52532 | 3040 ft | 168 kts | 239° |
| 2026-05-05 04:39 | 40.84609 | -73.53794 | 3079 ft | 164 kts | 240° |
| 2026-05-05 04:39 | 40.83975 | -73.55070 | 3060 ft | 165 kts | 239° |
| 2026-05-05 04:40 | 40.83342 | -73.56336 | 3048 ft | 165 kts | 239° |
| 2026-05-05 04:40 | 40.82711 | -73.57598 | 3046 ft | 164 kts | 239° |
| 2026-05-05 04:40 | 40.82082 | -73.58851 | 3063 ft | 164 kts | 239° |
| 2026-05-05 04:40 | 40.81444 | -73.60122 | 3047 ft | 167 kts | 239° |
| 2026-05-05 04:41 | 40.80800 | -73.61409 | 2998 ft | 168 kts | 239° |
| 2026-05-05 04:41 | 40.80147 | -73.62680 | 2909 ft | 168 kts | 233° |
| 2026-05-05 04:41 | 40.79252 | -73.63647 | 2839 ft | 160 kts | 221° |
| 2026-05-05 04:41 | 40.78374 | -73.64504 | 2725 ft | 155 kts | 220° |
| 2026-05-05 04:42 | 40.77513 | -73.65257 | 2628 ft | 141 kts | 218° |
| 2026-05-05 04:42 | 40.76726 | -73.65899 | 2581 ft | 129 kts | 218° |
| 2026-05-05 04:42 | 40.75966 | -73.66502 | 2493 ft | 126 kts | 218° |
| 2026-05-05 04:42 | 40.75200 | -73.67109 | 2450 ft | 133 kts | 217° |
| 2026-05-05 04:43 | 40.74415 | -73.67723 | 2265 ft | 127 kts | 217° |
| 2026-05-05 04:43 | 40.73669 | -73.68324 | 2109 ft | 123 kts | 217° |
| 2026-05-05 04:43 | 40.72934 | -73.68884 | 1930 ft | 121 kts | 214° |
| 2026-05-05 04:43 | 40.72217 | -73.69432 | 1759 ft | 117 kts | 218° |
| 2026-05-05 04:44 | 40.71509 | -73.70005 | 1627 ft | 122 kts | 216° |
| 2026-05-05 04:44 | 40.70780 | -73.70581 | 1442 ft | 121 kts | 216° |
| 2026-05-05 04:44 | 40.70063 | -73.71136 | 1276 ft | 118 kts | 216° |
| 2026-05-05 04:44 | 40.69349 | -73.71699 | 1132 ft | 123 kts | 214° |
| 2026-05-05 04:45 | 40.68632 | -73.72265 | 956 ft | 121 kts | 214° |
| 2026-05-05 04:45 | 40.67918 | -73.72834 | 814 ft | 124 kts | 212° |
| 2026-05-05 04:45 | 40.67160 | -73.73421 | 656 ft | 127 kts | 209° |
| 2026-05-05 04:45 | 40.66408 | -73.74008 | 475 ft | 123 kts | 208° |
| 2026-05-05 04:46 | 40.65678 | -73.74580 | 325 ft | 122 kts | 209° |
| 2026-05-05 04:46 | 40.64932 | -73.75168 | 162 ft | 129 kts | 208° |
| 2026-05-05 04:46 | 40.64150 | -73.75779 | 26 ft | 127 kts | 210° |
| 2026-05-05 04:46 | 40.63514 | -73.76278 | 24 ft | 81 kts | 210° |
| 2026-05-05 04:47 | 40.63335 | -73.76433 | 21 ft | 14 kts | 233° |
| 2026-05-05 04:47 | 40.63272 | -73.76554 | 21 ft | 18 kts | 238° |
| 2026-05-05 04:47 | 40.63245 | -73.76719 | 19 ft | 20 kts | 288° |
| 2026-05-05 04:47 | 40.63293 | -73.76837 | 19 ft | 0 kts | 301° |
| 2026-05-05 04:48 | 40.63306 | -73.76865 | 19 ft | 13 kts | 300° |
| 2026-05-05 04:48 | 40.63373 | -73.77014 | 19 ft | 21 kts | 301° |
| 2026-05-05 04:48 | 40.63449 | -73.77180 | 20 ft | 21 kts | 301° |
| 2026-05-05 04:48 | 40.63508 | -73.77309 | 20 ft | 3 kts | 303° |
| 2026-05-05 04:49 | 40.63522 | -73.77342 | 20 ft | 6 kts | 299° |
| 2026-05-05 04:49 | 40.63551 | -73.77407 | 20 ft | 11 kts | 301° |
| 2026-05-05 04:49 | 40.63601 | -73.77516 | 20 ft | 17 kts | 301° |
| 2026-05-05 04:49 | 40.63664 | -73.77632 | 19 ft | 11 kts | 315° |
| 2026-05-05 04:50 | 40.63736 | -73.77673 | 19 ft | 12 kts | 345° |
| 2026-05-05 04:50 | 40.63817 | -73.77724 | 19 ft | 14 kts | 323° |
| 2026-05-05 04:50 | 40.63906 | -73.77805 | 20 ft | 17 kts | 326° |
| 2026-05-05 04:50 | 40.64016 | -73.77876 | 19 ft | 17 kts | 348° |
| 2026-05-05 04:51 | 40.64128 | -73.77875 | 19 ft | 16 kts | 8° |
| 2026-05-05 04:51 | 40.64221 | -73.77858 | 19 ft | 11 kts | 7° |
| 2026-05-05 04:51 | 40.64237 | -73.77855 | 19 ft | 0 kts | 8° |